sensor_id;sensor_type;location;lat;lon;timestamp;pressure;altitude;pressure_sealevel;temperature;humidity
74958;BME280;63741;42.624;26.276;2023-10-08T00:00:49;99911.91;;;16.22;47.44
74958;BME280;63741;42.624;26.276;2023-10-08T00:03:16;99904.97;;;16.02;47.54
74958;BME280;63741;42.624;26.276;2023-10-08T00:05:49;99893.81;;;15.88;47.04
74958;BME280;63741;42.624;26.276;2023-10-08T00:08:17;99900.91;;;16.07;46.63
74958;BME280;63741;42.624;26.276;2023-10-08T00:10:44;99896.94;;;16.11;46.02
74958;BME280;63741;42.624;26.276;2023-10-08T00:13:13;99893.88;;;16.06;45.72
74958;BME280;63741;42.624;26.276;2023-10-08T00:15:43;99891.34;;;15.77;47.18
74958;BME280;63741;42.624;26.276;2023-10-08T00:18:21;99887.72;;;15.69;47.21
74958;BME280;63741;42.624;26.276;2023-10-08T00:20:50;99883.34;;;15.58;48.46
74958;BME280;63741;42.624;26.276;2023-10-08T00:23:45;99872.59;;;15.50;48.75
74958;BME280;63741;42.624;26.276;2023-10-08T00:26:20;99881.06;;;15.82;48.55
74958;BME280;63741;42.624;26.276;2023-10-08T00:29:02;99883.34;;;16.05;48.73
74958;BME280;63741;42.624;26.276;2023-10-08T00:31:55;99882.00;;;16.18;48.79
74958;BME280;63741;42.624;26.276;2023-10-08T00:34:24;99873.06;;;16.10;49.99
74958;BME280;63741;42.624;26.276;2023-10-08T00:36:51;99877.56;;;15.82;50.41
74958;BME280;63741;42.624;26.276;2023-10-08T00:39:18;99881.78;;;15.75;50.93
74958;BME280;63741;42.624;26.276;2023-10-08T00:41:52;99880.22;;;15.82;50.60
74958;BME280;63741;42.624;26.276;2023-10-08T00:44:26;99884.06;;;15.70;50.68
74958;BME280;63741;42.624;26.276;2023-10-08T00:46:57;99878.63;;;15.89;50.04
74958;BME280;63741;42.624;26.276;2023-10-08T00:49:28;99873.50;;;15.78;50.61
74958;BME280;63741;42.624;26.276;2023-10-08T00:52:09;99875.50;;;15.66;51.22
74958;BME280;63741;42.624;26.276;2023-10-08T00:54:40;99871.97;;;16.03;50.32
74958;BME280;63741;42.624;26.276;2023-10-08T00:57:25;99867.34;;;15.77;51.03
74958;BME280;63741;42.624;26.276;2023-10-08T00:59:52;99867.72;;;15.82;50.85
74958;BME280;63741;42.624;26.276;2023-10-08T01:02:21;99866.91;;;16.09;50.40
74958;BME280;63741;42.624;26.276;2023-10-08T01:04:54;99862.00;;;16.05;49.76
74958;BME280;63741;42.624;26.276;2023-10-08T01:07:21;99862.69;;;16.07;49.89
74958;BME280;63741;42.624;26.276;2023-10-08T01:09:50;99868.44;;;16.12;49.14
74958;BME280;63741;42.624;26.276;2023-10-08T01:12:19;99860.06;;;15.97;50.02
74958;BME280;63741;42.624;26.276;2023-10-08T01:14:47;99851.81;;;16.18;49.37
74958;BME280;63741;42.624;26.276;2023-10-08T01:17:16;99851.38;;;15.95;49.42
74958;BME280;63741;42.624;26.276;2023-10-08T01:19:43;99838.72;;;15.97;49.86
74958;BME280;63741;42.624;26.276;2023-10-08T01:22:12;99845.22;;;15.85;50.25
74958;BME280;63741;42.624;26.276;2023-10-08T01:24:45;99838.56;;;15.61;50.32
74958;BME280;63741;42.624;26.276;2023-10-08T01:27:16;99841.66;;;15.76;51.48
74958;BME280;63741;42.624;26.276;2023-10-08T01:29:49;99845.16;;;16.04;50.42
74958;BME280;63741;42.624;26.276;2023-10-08T01:32:20;99839.94;;;16.03;49.64
74958;BME280;63741;42.624;26.276;2023-10-08T01:34:49;99831.28;;;16.01;49.62
74958;BME280;63741;42.624;26.276;2023-10-08T01:37:17;99835.13;;;15.88;49.35
74958;BME280;63741;42.624;26.276;2023-10-08T01:39:47;99831.28;;;16.01;49.05
74958;BME280;63741;42.624;26.276;2023-10-08T01:42:18;99833.75;;;16.12;48.86
74958;BME280;63741;42.624;26.276;2023-10-08T01:44:49;99824.94;;;16.02;48.60
74958;BME280;63741;42.624;26.276;2023-10-08T01:47:17;99832.78;;;15.76;48.72
74958;BME280;63741;42.624;26.276;2023-10-08T01:49:44;99837.44;;;15.74;48.84
74958;BME280;63741;42.624;26.276;2023-10-08T01:52:13;99834.53;;;15.67;48.94
74958;BME280;63741;42.624;26.276;2023-10-08T01:54:44;99825.13;;;15.63;48.45
74958;BME280;63741;42.624;26.276;2023-10-08T01:57:11;99830.03;;;15.58;49.48
74958;BME280;63741;42.624;26.276;2023-10-08T01:59:39;99822.16;;;15.19;50.32
74958;BME280;63741;42.624;26.276;2023-10-08T02:02:06;99818.34;;;15.31;49.40
74958;BME280;63741;42.624;26.276;2023-10-08T02:04:33;99820.59;;;15.26;49.90
74958;BME280;63741;42.624;26.276;2023-10-08T02:07:04;99815.41;;;15.25;49.54
74958;BME280;63741;42.624;26.276;2023-10-08T02:09:36;99825.78;;;15.28;50.02
74958;BME280;63741;42.624;26.276;2023-10-08T02:12:04;99824.44;;;15.14;49.93
74958;BME280;63741;42.624;26.276;2023-10-08T02:14:31;99819.22;;;15.12;50.43
74958;BME280;63741;42.624;26.276;2023-10-08T02:16:58;99811.19;;;15.32;50.39
74958;BME280;63741;42.624;26.276;2023-10-08T02:19:30;99797.94;;;15.03;51.30
74958;BME280;63741;42.624;26.276;2023-10-08T02:21:58;99798.66;;;15.05;51.62
74958;BME280;63741;42.624;26.276;2023-10-08T02:24:25;99795.00;;;15.06;51.02
74958;BME280;63741;42.624;26.276;2023-10-08T02:26:53;99793.72;;;15.10;51.76
74958;BME280;63741;42.624;26.276;2023-10-08T02:29:25;99798.91;;;15.11;51.28
74958;BME280;63741;42.624;26.276;2023-10-08T02:31:52;99802.94;;;15.15;51.68
74958;BME280;63741;42.624;26.276;2023-10-08T02:34:22;99793.03;;;14.98;52.12
74958;BME280;63741;42.624;26.276;2023-10-08T02:36:49;99800.78;;;14.91;53.04
74958;BME280;63741;42.624;26.276;2023-10-08T02:39:18;99804.81;;;15.05;52.16
74958;BME280;63741;42.624;26.276;2023-10-08T02:41:50;99805.13;;;14.83;52.31
74958;BME280;63741;42.624;26.276;2023-10-08T02:44:17;99800.78;;;14.72;52.98
74958;BME280;63741;42.624;26.276;2023-10-08T02:46:45;99795.13;;;14.27;55.02
74958;BME280;63741;42.624;26.276;2023-10-08T02:49:21;99793.91;;;14.50;54.71
74958;BME280;63741;42.624;26.276;2023-10-08T02:51:52;99779.78;;;14.50;54.33
74958;BME280;63741;42.624;26.276;2023-10-08T02:54:20;99778.34;;;14.26;54.77
74958;BME280;63741;42.624;26.276;2023-10-08T02:56:51;99779.75;;;14.40;54.83
74958;BME280;63741;42.624;26.276;2023-10-08T02:59:19;99779.16;;;14.07;55.83
74958;BME280;63741;42.624;26.276;2023-10-08T03:01:49;99785.34;;;14.47;55.60
74958;BME280;63741;42.624;26.276;2023-10-08T03:04:17;99774.28;;;14.22;55.55
74958;BME280;63741;42.624;26.276;2023-10-08T03:06:47;99774.84;;;14.26;55.38
74958;BME280;63741;42.624;26.276;2023-10-08T03:09:18;99778.19;;;14.37;55.66
74958;BME280;63741;42.624;26.276;2023-10-08T03:11:51;99776.50;;;14.17;55.56
74958;BME280;63741;42.624;26.276;2023-10-08T03:14:19;99777.63;;;14.14;56.76
74958;BME280;63741;42.624;26.276;2023-10-08T03:16:51;99779.84;;;14.09;56.06
74958;BME280;63741;42.624;26.276;2023-10-08T03:19:21;99774.56;;;14.38;55.08
74958;BME280;63741;42.624;26.276;2023-10-08T03:21:50;99775.69;;;14.55;54.68
74958;BME280;63741;42.624;26.276;2023-10-08T03:24:23;99780.56;;;14.40;55.11
74958;BME280;63741;42.624;26.276;2023-10-08T03:26:58;99780.31;;;14.34;55.61
74958;BME280;63741;42.624;26.276;2023-10-08T03:29:36;99766.19;;;14.53;55.07
74958;BME280;63741;42.624;26.276;2023-10-08T03:32:14;99777.50;;;14.35;55.05
74958;BME280;63741;42.624;26.276;2023-10-08T03:34:46;99773.69;;;14.28;56.09
74958;BME280;63741;42.624;26.276;2023-10-08T03:37:15;99784.66;;;14.35;54.87
74958;BME280;63741;42.624;26.276;2023-10-08T03:39:48;99768.94;;;14.03;55.12
74958;BME280;63741;42.624;26.276;2023-10-08T03:42:22;99768.22;;;14.10;55.45
74958;BME280;63741;42.624;26.276;2023-10-08T03:44:52;99769.81;;;13.63;56.39
74958;BME280;63741;42.624;26.276;2023-10-08T03:47:24;99781.09;;;13.96;56.11
74958;BME280;63741;42.624;26.276;2023-10-08T03:49:53;99772.88;;;13.58;56.81
74958;BME280;63741;42.624;26.276;2023-10-08T03:52:21;99781.47;;;13.72;55.85
74958;BME280;63741;42.624;26.276;2023-10-08T03:54:52;99762.06;;;14.00;55.54
74958;BME280;63741;42.624;26.276;2023-10-08T03:57:52;99764.75;;;13.60;57.10
74958;BME280;63741;42.624;26.276;2023-10-08T04:00:24;99755.69;;;13.62;56.92
74958;BME280;63741;42.624;26.276;2023-10-08T04:03:08;99760.16;;;13.62;56.22
74958;BME280;63741;42.624;26.276;2023-10-08T04:05:38;99761.41;;;13.58;56.83
74958;BME280;63741;42.624;26.276;2023-10-08T04:08:26;99748.53;;;13.53;56.95
74958;BME280;63741;42.624;26.276;2023-10-08T04:11:21;99746.41;;;13.57;57.40
74958;BME280;63741;42.624;26.276;2023-10-08T04:13:59;99757.94;;;13.27;57.33
74958;BME280;63741;42.624;26.276;2023-10-08T04:16:29;99743.97;;;13.34;57.43
74958;BME280;63741;42.624;26.276;2023-10-08T04:18:56;99735.31;;;13.11;57.71
74958;BME280;63741;42.624;26.276;2023-10-08T04:21:23;99745.50;;;13.27;57.83
74958;BME280;63741;42.624;26.276;2023-10-08T04:23:54;99753.94;;;13.42;57.01
74958;BME280;63741;42.624;26.276;2023-10-08T04:26:24;99738.66;;;13.34;57.04
74958;BME280;63741;42.624;26.276;2023-10-08T04:28:56;99757.75;;;12.98;58.62
74958;BME280;63741;42.624;26.276;2023-10-08T04:31:29;99760.22;;;12.89;59.48
74958;BME280;63741;42.624;26.276;2023-10-08T04:34:13;99750.63;;;12.98;59.24
74958;BME280;63741;42.624;26.276;2023-10-08T04:36:43;99750.09;;;13.25;58.03
74958;BME280;63741;42.624;26.276;2023-10-08T04:39:16;99752.22;;;13.10;59.22
74958;BME280;63741;42.624;26.276;2023-10-08T04:41:48;99757.09;;;13.26;58.83
74958;BME280;63741;42.624;26.276;2023-10-08T04:44:20;99757.72;;;13.39;57.42
74958;BME280;63741;42.624;26.276;2023-10-08T04:46:48;99754.44;;;13.26;58.02
74958;BME280;63741;42.624;26.276;2023-10-08T04:49:19;99757.56;;;13.20;59.13
74958;BME280;63741;42.624;26.276;2023-10-08T04:52:06;99754.72;;;13.73;56.72
74958;BME280;63741;42.624;26.276;2023-10-08T04:54:41;99750.66;;;13.69;57.23
74958;BME280;63741;42.624;26.276;2023-10-08T04:57:19;99755.31;;;13.86;56.85
74958;BME280;63741;42.624;26.276;2023-10-08T04:59:49;99746.94;;;13.91;56.77
74958;BME280;63741;42.624;26.276;2023-10-08T05:02:17;99760.53;;;14.07;55.97
74958;BME280;63741;42.624;26.276;2023-10-08T05:05:01;99765.56;;;14.10;56.28
74958;BME280;63741;42.624;26.276;2023-10-08T05:07:37;99766.56;;;14.19;56.19
74958;BME280;63741;42.624;26.276;2023-10-08T05:10:27;99770.53;;;14.54;54.23
74958;BME280;63741;42.624;26.276;2023-10-08T05:12:54;99767.16;;;14.42;54.77
74958;BME280;63741;42.624;26.276;2023-10-08T05:15:31;99767.88;;;14.54;54.85
74958;BME280;63741;42.624;26.276;2023-10-08T05:18:08;99762.53;;;14.34;55.03
74958;BME280;63741;42.624;26.276;2023-10-08T05:20:39;99762.00;;;14.60;54.74
74958;BME280;63741;42.624;26.276;2023-10-08T05:23:16;99766.13;;;14.82;54.27
74958;BME280;63741;42.624;26.276;2023-10-08T05:25:57;99754.97;;;14.59;55.34
74958;BME280;63741;42.624;26.276;2023-10-08T05:31:16;99762.06;;;14.97;54.38
74958;BME280;63741;42.624;26.276;2023-10-08T05:33:43;99763.28;;;15.03;54.40
74958;BME280;63741;42.624;26.276;2023-10-08T05:36:36;99770.72;;;15.46;52.67
74958;BME280;63741;42.624;26.276;2023-10-08T05:39:17;99763.59;;;15.74;51.60
74958;BME280;63741;42.624;26.276;2023-10-08T05:42:01;99763.53;;;15.84;52.62
74958;BME280;63741;42.624;26.276;2023-10-08T05:44:44;99758.31;;;15.92;51.61
74958;BME280;63741;42.624;26.276;2023-10-08T05:47:37;99763.47;;;16.39;51.62
74958;BME280;63741;42.624;26.276;2023-10-08T05:50:05;99757.41;;;16.55;50.67
74958;BME280;63741;42.624;26.276;2023-10-08T05:52:47;99773.25;;;16.92;49.41
74958;BME280;63741;42.624;26.276;2023-10-08T05:55:19;99774.28;;;16.73;49.63
74958;BME280;63741;42.624;26.276;2023-10-08T05:58:04;99773.13;;;16.22;50.55
74958;BME280;63741;42.624;26.276;2023-10-08T06:00:42;99763.38;;;16.49;50.48
74958;BME280;63741;42.624;26.276;2023-10-08T06:03:18;99758.31;;;16.81;49.45
74958;BME280;63741;42.624;26.276;2023-10-08T06:06:23;99762.94;;;16.97;49.55
74958;BME280;63741;42.624;26.276;2023-10-08T06:08:52;99755.22;;;16.94;48.73
74958;BME280;63741;42.624;26.276;2023-10-08T06:11:36;99757.69;;;17.13;48.42
74958;BME280;63741;42.624;26.276;2023-10-08T06:14:08;99754.63;;;17.34;48.18
74958;BME280;63741;42.624;26.276;2023-10-08T06:16:44;99748.91;;;17.63;47.87
74958;BME280;63741;42.624;26.276;2023-10-08T06:19:11;99748.06;;;17.63;48.06
74958;BME280;63741;42.624;26.276;2023-10-08T06:21:42;99746.59;;;17.68;47.69
74958;BME280;63741;42.624;26.276;2023-10-08T06:24:09;99753.09;;;18.08;46.74
74958;BME280;63741;42.624;26.276;2023-10-08T06:26:40;99756.59;;;18.17;45.51
74958;BME280;63741;42.624;26.276;2023-10-08T06:29:12;99753.91;;;18.01;46.61
74958;BME280;63741;42.624;26.276;2023-10-08T06:31:46;99755.63;;;18.18;46.65
74958;BME280;63741;42.624;26.276;2023-10-08T06:34:18;99742.03;;;17.95;46.37
74958;BME280;63741;42.624;26.276;2023-10-08T06:36:49;99740.53;;;18.17;46.61
74958;BME280;63741;42.624;26.276;2023-10-08T06:39:26;99739.06;;;18.23;46.79
74958;BME280;63741;42.624;26.276;2023-10-08T06:42:00;99744.75;;;18.52;45.98
74958;BME280;63741;42.624;26.276;2023-10-08T06:44:31;99747.09;;;18.47;46.07
74958;BME280;63741;42.624;26.276;2023-10-08T06:46:58;99751.13;;;18.67;46.17
74958;BME280;63741;42.624;26.276;2023-10-08T06:49:25;99753.63;;;18.36;46.63
74958;BME280;63741;42.624;26.276;2023-10-08T06:51:57;99743.78;;;18.78;45.99
74958;BME280;63741;42.624;26.276;2023-10-08T06:54:24;99752.13;;;18.83;45.38
74958;BME280;63741;42.624;26.276;2023-10-08T06:57:00;99745.63;;;18.69;46.07
74958;BME280;63741;42.624;26.276;2023-10-08T06:59:27;99746.38;;;19.27;44.93
74958;BME280;63741;42.624;26.276;2023-10-08T07:01:58;99750.13;;;19.57;44.27
74958;BME280;63741;42.624;26.276;2023-10-08T07:04:25;99742.75;;;19.51;43.90
74958;BME280;63741;42.624;26.276;2023-10-08T07:06:53;99743.97;;;19.40;44.36
74958;BME280;63741;42.624;26.276;2023-10-08T07:09:20;99729.63;;;19.64;43.24
74958;BME280;63741;42.624;26.276;2023-10-08T07:11:54;99726.50;;;19.60;42.76
74958;BME280;63741;42.624;26.276;2023-10-08T07:14:26;99725.53;;;19.84;43.67
74958;BME280;63741;42.624;26.276;2023-10-08T07:16:56;99713.22;;;19.90;43.05
74958;BME280;63741;42.624;26.276;2023-10-08T07:19:30;99718.28;;;20.16;41.30
74958;BME280;63741;42.624;26.276;2023-10-08T07:22:18;99714.22;;;20.20;41.88
74958;BME280;63741;42.624;26.276;2023-10-08T07:24:49;99717.19;;;20.02;42.02
74958;BME280;63741;42.624;26.276;2023-10-08T07:27:21;99715.94;;;20.13;41.45
74958;BME280;63741;42.624;26.276;2023-10-08T07:29:49;99711.47;;;20.51;41.02
74958;BME280;63741;42.624;26.276;2023-10-08T07:32:17;99710.59;;;20.74;41.86
74958;BME280;63741;42.624;26.276;2023-10-08T07:34:46;99717.50;;;20.91;40.86
74958;BME280;63741;42.624;26.276;2023-10-08T07:37:13;99704.69;;;20.93;40.40
74958;BME280;63741;42.624;26.276;2023-10-08T07:39:42;99696.94;;;21.13;40.46
74958;BME280;63741;42.624;26.276;2023-10-08T07:42:14;99699.13;;;21.24;40.11
74958;BME280;63741;42.624;26.276;2023-10-08T07:44:41;99696.53;;;21.31;40.05
74958;BME280;63741;42.624;26.276;2023-10-08T07:47:08;99694.19;;;21.72;39.27
74958;BME280;63741;42.624;26.276;2023-10-08T07:49:38;99689.41;;;21.23;39.03
74958;BME280;63741;42.624;26.276;2023-10-08T07:52:05;99679.00;;;21.50;38.74
74958;BME280;63741;42.624;26.276;2023-10-08T07:54:32;99684.59;;;21.84;38.54
74958;BME280;63741;42.624;26.276;2023-10-08T07:57:03;99683.78;;;22.27;38.41
74958;BME280;63741;42.624;26.276;2023-10-08T07:59:38;99677.44;;;22.34;38.20
74958;BME280;63741;42.624;26.276;2023-10-08T08:02:06;99674.44;;;22.23;36.54
74958;BME280;63741;42.624;26.276;2023-10-08T08:04:43;99679.28;;;22.55;37.08
74958;BME280;63741;42.624;26.276;2023-10-08T08:07:12;99671.09;;;22.98;37.79
74958;BME280;63741;42.624;26.276;2023-10-08T08:09:47;99661.03;;;23.20;36.98
74958;BME280;63741;42.624;26.276;2023-10-08T08:12:21;99657.00;;;23.03;36.09
74958;BME280;63741;42.624;26.276;2023-10-08T08:14:50;99666.22;;;23.15;36.05
74958;BME280;63741;42.624;26.276;2023-10-08T08:17:18;99660.31;;;22.98;35.03
74958;BME280;63741;42.624;26.276;2023-10-08T08:19:47;99648.19;;;23.22;34.79
74958;BME280;63741;42.624;26.276;2023-10-08T08:22:15;99645.97;;;23.39;33.79
74958;BME280;63741;42.624;26.276;2023-10-08T08:24:52;99630.69;;;23.59;32.49
74958;BME280;63741;42.624;26.276;2023-10-08T08:27:29;99631.09;;;23.63;31.21
74958;BME280;63741;42.624;26.276;2023-10-08T08:30:00;99627.25;;;23.92;31.12
74958;BME280;63741;42.624;26.276;2023-10-08T08:32:37;99628.06;;;23.92;30.83
74958;BME280;63741;42.624;26.276;2023-10-08T08:35:10;99619.78;;;24.07;30.61
74958;BME280;63741;42.624;26.276;2023-10-08T08:37:38;99616.03;;;24.28;29.88
74958;BME280;63741;42.624;26.276;2023-10-08T08:40:07;99609.78;;;24.28;30.13
74958;BME280;63741;42.624;26.276;2023-10-08T08:42:52;99606.47;;;24.26;30.02
74958;BME280;63741;42.624;26.276;2023-10-08T08:45:21;99600.66;;;24.22;30.08
74958;BME280;63741;42.624;26.276;2023-10-08T08:47:48;99604.41;;;24.48;30.16
74958;BME280;63741;42.624;26.276;2023-10-08T08:50:16;99601.00;;;24.85;29.31
74958;BME280;63741;42.624;26.276;2023-10-08T08:52:45;99593.00;;;25.17;29.40
74958;BME280;63741;42.624;26.276;2023-10-08T08:55:15;99584.44;;;25.65;29.42
74958;BME280;63741;42.624;26.276;2023-10-08T08:57:46;99589.88;;;25.96;28.96
74958;BME280;63741;42.624;26.276;2023-10-08T09:00:15;99572.72;;;25.78;26.98
74958;BME280;63741;42.624;26.276;2023-10-08T09:02:46;99572.00;;;26.14;27.85
74958;BME280;63741;42.624;26.276;2023-10-08T09:05:15;99560.22;;;26.27;26.10
74958;BME280;63741;42.624;26.276;2023-10-08T09:07:57;99557.22;;;26.35;26.51
74958;BME280;63741;42.624;26.276;2023-10-08T09:10:26;99556.09;;;26.42;26.04
74958;BME280;63741;42.624;26.276;2023-10-08T09:12:58;99547.84;;;26.56;25.88
74958;BME280;63741;42.624;26.276;2023-10-08T09:15:26;99555.38;;;26.54;25.97
74958;BME280;63741;42.624;26.276;2023-10-08T09:17:57;99544.00;;;26.63;25.58
74958;BME280;63741;42.624;26.276;2023-10-08T09:20:28;99536.69;;;26.82;25.90
74958;BME280;63741;42.624;26.276;2023-10-08T09:23:11;99514.91;;;26.89;23.80
74958;BME280;63741;42.624;26.276;2023-10-08T09:25:42;99523.75;;;26.84;23.86
74958;BME280;63741;42.624;26.276;2023-10-08T09:28:10;99528.91;;;27.04;23.67
74958;BME280;63741;42.624;26.276;2023-10-08T09:30:41;99534.63;;;27.14;23.80
74958;BME280;63741;42.624;26.276;2023-10-08T09:33:10;99528.69;;;27.24;23.94
74958;BME280;63741;42.624;26.276;2023-10-08T09:35:39;99519.03;;;27.28;23.83
74958;BME280;63741;42.624;26.276;2023-10-08T09:38:07;99516.00;;;27.48;24.16
74958;BME280;63741;42.624;26.276;2023-10-08T09:40:37;99516.50;;;27.57;24.69
74958;BME280;63741;42.624;26.276;2023-10-08T09:43:04;99513.78;;;27.57;23.23
74958;BME280;63741;42.624;26.276;2023-10-08T09:45:32;99511.31;;;27.67;23.33
74958;BME280;63741;42.624;26.276;2023-10-08T09:48:07;99510.72;;;27.65;23.50
74958;BME280;63741;42.624;26.276;2023-10-08T09:50:40;99523.72;;;27.63;24.28
74958;BME280;63741;42.624;26.276;2023-10-08T09:53:12;99500.13;;;27.75;23.22
74958;BME280;63741;42.624;26.276;2023-10-08T09:55:54;99506.50;;;27.69;24.05
74958;BME280;63741;42.624;26.276;2023-10-08T09:58:27;99489.75;;;27.84;23.51
74958;BME280;63741;42.624;26.276;2023-10-08T10:00:56;99484.88;;;27.86;23.71
74958;BME280;63741;42.624;26.276;2023-10-08T10:03:27;99476.38;;;27.94;24.16
74958;BME280;63741;42.624;26.276;2023-10-08T10:05:55;99482.41;;;28.08;24.71
74958;BME280;63741;42.624;26.276;2023-10-08T10:08:27;99483.34;;;28.25;23.73
74958;BME280;63741;42.624;26.276;2023-10-08T10:11:03;99482.41;;;28.43;23.68
74958;BME280;63741;42.624;26.276;2023-10-08T10:13:50;99487.13;;;28.48;23.56
74958;BME280;63741;42.624;26.276;2023-10-08T10:16:21;99472.81;;;28.52;23.97
74958;BME280;63741;42.624;26.276;2023-10-08T10:18:55;99461.31;;;28.62;23.79
74958;BME280;63741;42.624;26.276;2023-10-08T10:21:33;99471.31;;;28.85;23.18
74958;BME280;63741;42.624;26.276;2023-10-08T10:24:01;99468.00;;;28.83;24.09
74958;BME280;63741;42.624;26.276;2023-10-08T10:26:34;99456.16;;;28.89;23.18
74958;BME280;63741;42.624;26.276;2023-10-08T10:31:38;99455.66;;;29.04;23.33
74958;BME280;63741;42.624;26.276;2023-10-08T10:34:08;99453.00;;;29.09;22.97
74958;BME280;63741;42.624;26.276;2023-10-08T10:36:39;99449.81;;;29.12;22.56
74958;BME280;63741;42.624;26.276;2023-10-08T10:39:08;99435.78;;;29.20;22.89
74958;BME280;63741;42.624;26.276;2023-10-08T10:41:58;99442.72;;;29.28;23.32
74958;BME280;63741;42.624;26.276;2023-10-08T10:44:30;99434.31;;;29.29;23.56
74958;BME280;63741;42.624;26.276;2023-10-08T10:46:59;99441.31;;;29.25;21.98
74958;BME280;63741;42.624;26.276;2023-10-08T10:49:47;99428.75;;;29.24;21.79
74958;BME280;63741;42.624;26.276;2023-10-08T10:52:32;99432.41;;;29.46;22.79
74958;BME280;63741;42.624;26.276;2023-10-08T10:55:05;99429.91;;;29.57;22.92
74958;BME280;63741;42.624;26.276;2023-10-08T10:57:55;99426.44;;;29.61;22.48
74958;BME280;63741;42.624;26.276;2023-10-08T11:00:42;99425.75;;;29.71;22.42
74958;BME280;63741;42.624;26.276;2023-10-08T11:03:09;99419.72;;;29.69;22.96
74958;BME280;63741;42.624;26.276;2023-10-08T11:06:09;99414.09;;;29.76;22.15
74958;BME280;63741;42.624;26.276;2023-10-08T11:08:42;99414.16;;;29.81;22.49
74958;BME280;63741;42.624;26.276;2023-10-08T11:11:13;99405.25;;;29.85;22.25
74958;BME280;63741;42.624;26.276;2023-10-08T11:13:44;99401.00;;;29.94;22.84
74958;BME280;63741;42.624;26.276;2023-10-08T11:16:18;99405.50;;;29.67;22.17
74958;BME280;63741;42.624;26.276;2023-10-08T11:18:50;99399.84;;;29.90;22.62
74958;BME280;63741;42.624;26.276;2023-10-08T11:21:18;99388.03;;;30.02;21.84
74958;BME280;63741;42.624;26.276;2023-10-08T11:23:52;99402.41;;;30.14;22.63
74958;BME280;63741;42.624;26.276;2023-10-08T11:26:22;99399.31;;;30.10;22.21
74958;BME280;63741;42.624;26.276;2023-10-08T11:28:59;99394.53;;;30.17;21.89
74958;BME280;63741;42.624;26.276;2023-10-08T11:31:31;99394.34;;;30.24;22.58
74958;BME280;63741;42.624;26.276;2023-10-08T11:34:04;99385.50;;;30.39;22.81
74958;BME280;63741;42.624;26.276;2023-10-08T11:36:40;99382.03;;;30.21;22.44
74958;BME280;63741;42.624;26.276;2023-10-08T11:39:20;99375.94;;;30.36;21.89
74958;BME280;63741;42.624;26.276;2023-10-08T11:44:23;99374.44;;;30.24;22.26
74958;BME280;63741;42.624;26.276;2023-10-08T11:46:57;99377.97;;;30.24;22.03
74958;BME280;63741;42.624;26.276;2023-10-08T11:49:31;99366.09;;;30.35;22.09
74958;BME280;63741;42.624;26.276;2023-10-08T11:52:03;99354.53;;;30.50;21.58
74958;BME280;63741;42.624;26.276;2023-10-08T11:54:30;99362.09;;;30.21;21.93
74958;BME280;63741;42.624;26.276;2023-10-08T11:57:00;99356.97;;;30.25;22.31
74958;BME280;63741;42.624;26.276;2023-10-08T11:59:29;99358.75;;;30.14;22.27
74958;BME280;63741;42.624;26.276;2023-10-08T12:01:58;99350.94;;;30.23;22.44
74958;BME280;63741;42.624;26.276;2023-10-08T12:04:25;99349.38;;;30.54;21.23
74958;BME280;63741;42.624;26.276;2023-10-08T12:06:56;99342.25;;;30.75;23.01
74958;BME280;63741;42.624;26.276;2023-10-08T12:09:23;99342.13;;;30.64;21.88
74958;BME280;63741;42.624;26.276;2023-10-08T12:11:54;99344.63;;;30.44;21.38
74958;BME280;63741;42.624;26.276;2023-10-08T12:14:23;99327.94;;;30.40;22.35
74958;BME280;63741;42.624;26.276;2023-10-08T12:16:57;99332.53;;;30.35;22.61
74958;BME280;63741;42.624;26.276;2023-10-08T12:19:27;99335.88;;;30.42;21.80
74958;BME280;63741;42.624;26.276;2023-10-08T12:21:54;99319.44;;;30.59;21.61
74958;BME280;63741;42.624;26.276;2023-10-08T12:24:21;99318.56;;;30.58;21.52
74958;BME280;63741;42.624;26.276;2023-10-08T12:26:47;99334.63;;;30.50;21.78
74958;BME280;63741;42.624;26.276;2023-10-08T12:29:16;99317.03;;;30.40;21.51
74958;BME280;63741;42.624;26.276;2023-10-08T12:31:45;99313.34;;;30.52;21.21
74958;BME280;63741;42.624;26.276;2023-10-08T12:34:14;99324.16;;;30.68;21.08
74958;BME280;63741;42.624;26.276;2023-10-08T12:36:42;99302.91;;;30.49;21.30
74958;BME280;63741;42.624;26.276;2023-10-08T12:39:09;99311.09;;;30.49;21.52
74958;BME280;63741;42.624;26.276;2023-10-08T12:41:42;99318.16;;;30.44;21.75
74958;BME280;63741;42.624;26.276;2023-10-08T12:44:11;99308.78;;;30.62;21.24
74958;BME280;63741;42.624;26.276;2023-10-08T12:46:40;99313.06;;;30.53;21.82
74958;BME280;63741;42.624;26.276;2023-10-08T12:49:11;99320.06;;;30.44;22.61
74958;BME280;63741;42.624;26.276;2023-10-08T12:51:38;99312.69;;;30.44;21.19
74958;BME280;63741;42.624;26.276;2023-10-08T12:54:08;99298.00;;;30.45;21.38
74958;BME280;63741;42.624;26.276;2023-10-08T12:56:39;99301.88;;;30.06;22.37
74958;BME280;63741;42.624;26.276;2023-10-08T12:59:12;99303.41;;;29.96;22.48
74958;BME280;63741;42.624;26.276;2023-10-08T13:01:51;99304.34;;;29.85;23.59
74958;BME280;63741;42.624;26.276;2023-10-08T13:04:18;99297.94;;;29.75;23.28
74958;BME280;63741;42.624;26.276;2023-10-08T13:06:57;99299.31;;;29.38;23.91
74958;BME280;63741;42.624;26.276;2023-10-08T13:09:31;99288.63;;;28.69;25.06
74958;BME280;63741;42.624;26.276;2023-10-08T13:11:59;99290.88;;;28.44;25.18
74958;BME280;63741;42.624;26.276;2023-10-08T13:14:26;99288.84;;;28.23;25.98
74958;BME280;63741;42.624;26.276;2023-10-08T13:16:53;99304.50;;;28.04;26.42
74958;BME280;63741;42.624;26.276;2023-10-08T13:19:20;99306.00;;;28.11;26.11
74958;BME280;63741;42.624;26.276;2023-10-08T13:21:50;99312.97;;;28.19;25.72
74958;BME280;63741;42.624;26.276;2023-10-08T13:24:21;99313.38;;;28.39;25.81